createdAt,value
2023-01-09T00:02:11.726Z,92973.41
2023-01-09T00:05:16.872Z,92962.72
2023-01-09T00:08:20.039Z,92967.47
2023-01-09T00:11:23.691Z,92957.16
2023-01-09T00:14:26.983Z,92962.53
2023-01-09T00:17:30.059Z,92967.34
2023-01-09T00:20:33.342Z,92967.13
2023-01-09T00:23:37.441Z,92978.59
2023-01-09T00:26:41.197Z,92982.50
2023-01-09T00:29:50.199Z,92972.53
2023-01-09T00:32:56.101Z,92977.56
2023-01-09T00:35:59.325Z,92976.50
2023-01-09T00:39:02.872Z,92975.34
2023-01-09T00:42:07.712Z,92962.94
2023-01-09T00:45:15.428Z,92961.31
2023-01-09T00:48:27.200Z,92954.25
2023-01-09T00:51:30.476Z,92961.94
2023-01-09T00:54:33.815Z,92950.84
2023-01-09T00:57:37.122Z,92937.00
2023-01-09T01:00:40.280Z,92938.81
2023-01-09T01:03:43.374Z,92935.53
2023-01-09T01:07:04.840Z,92935.41
2023-01-09T01:10:11.246Z,92940.06
2023-01-09T01:13:15.004Z,92943.00
2023-01-09T01:16:19.103Z,92946.94
2023-01-09T01:19:22.779Z,92930.44
2023-01-09T01:22:25.900Z,92910.31
2023-01-09T01:25:29.248Z,92912.75
2023-01-09T01:28:32.449Z,92917.09
2023-01-09T01:31:35.584Z,92922.81
2023-01-09T01:34:38.743Z,92926.34
2023-01-09T01:37:42.104Z,92924.44
2023-01-09T01:40:45.162Z,92931.63
2023-01-09T01:43:56.886Z,92934.28
2023-01-09T01:47:00.124Z,92932.13
2023-01-09T01:50:10.988Z,92924.84
2023-01-09T01:53:29.875Z,92909.97
2023-01-09T01:56:45.664Z,92917.47
2023-01-09T01:59:53.919Z,92916.00
2023-01-09T02:02:57.082Z,92906.47
2023-01-09T02:06:00.533Z,92908.75
2023-01-09T02:09:06.297Z,92896.94
2023-01-09T02:12:35.390Z,92885.41
2023-01-09T02:16:02.746Z,92873.25
2023-01-09T02:19:38.841Z,92846.75
2023-01-09T02:23:06.794Z,92872.13
2023-01-09T02:26:31.003Z,92886.72
2023-01-09T02:29:37.280Z,92887.47
2023-01-09T02:32:51.574Z,92885.50
2023-01-09T02:36:17.261Z,92886.16
2023-01-09T02:39:31.907Z,92891.56
2023-01-09T02:42:36.990Z,92896.63
2023-01-09T02:45:40.248Z,92885.03
2023-01-09T02:48:45.398Z,92881.16
2023-01-09T02:52:04.752Z,92873.06
2023-01-09T02:55:07.938Z,92860.97
2023-01-09T02:58:13.538Z,92860.28
2023-01-09T03:01:19.785Z,92853.22
2023-01-09T03:04:39.024Z,92835.72
2023-01-09T03:07:48.982Z,92832.53
2023-01-09T03:11:02.725Z,92831.22
2023-01-09T03:14:13.262Z,92796.19
2023-01-09T03:17:26.483Z,92804.31
2023-01-09T03:20:32.136Z,92810.63
2023-01-09T03:23:59.765Z,92792.56
2023-01-09T03:27:03.262Z,92803.19
2023-01-09T03:30:07.204Z,92795.66
2023-01-09T03:33:11.045Z,92792.53
2023-01-09T03:36:15.382Z,92784.06
2023-01-09T03:39:18.195Z,92782.28
2023-01-09T03:42:21.255Z,92780.75
2023-01-09T03:45:24.402Z,92768.56
2023-01-09T03:48:28.088Z,92773.38
2023-01-09T03:51:31.263Z,92778.38
2023-01-09T03:54:34.320Z,92787.59
2023-01-09T03:57:37.517Z,92780.00
2023-01-09T04:00:41.288Z,92780.50
2023-01-09T04:03:44.591Z,92781.44
2023-01-09T04:06:47.704Z,92776.81
2023-01-09T04:09:50.992Z,92764.13
2023-01-09T04:12:54.176Z,92763.25
2023-01-09T04:15:57.337Z,92752.06
2023-01-09T04:19:00.511Z,92747.53
2023-01-09T04:22:03.563Z,92740.53
2023-01-09T04:25:07.236Z,92726.28
2023-01-09T04:28:10.473Z,92732.47
2023-01-09T04:31:13.563Z,92729.16
2023-01-09T04:34:16.676Z,92724.38
2023-01-09T04:37:19.849Z,92721.56
2023-01-09T04:40:23.005Z,92710.81
2023-01-09T04:43:26.399Z,92712.28
2023-01-09T04:46:29.549Z,92710.66
2023-01-09T04:49:32.691Z,92702.50
2023-01-09T04:52:37.579Z,92701.16
2023-01-09T04:55:44.854Z,92704.38
2023-01-09T04:58:48.248Z,92696.25
2023-01-09T05:01:53.602Z,92687.56
2023-01-09T05:04:56.883Z,92686.59
2023-01-09T05:08:00.252Z,92685.53
2023-01-09T05:11:03.478Z,92666.13
2023-01-09T05:14:06.695Z,92664.66
2023-01-09T05:17:09.880Z,92657.84
2023-01-09T05:20:13.197Z,92654.59
2023-01-09T05:23:16.373Z,92660.56
2023-01-09T05:26:24.604Z,92660.25
2023-01-09T05:29:27.883Z,92656.56
2023-01-09T05:32:31.008Z,92641.66
2023-01-09T05:35:34.254Z,92632.56
2023-01-09T05:38:37.654Z,92627.22
2023-01-09T05:41:40.683Z,92632.88
2023-01-09T05:44:43.739Z,92631.25
2023-01-09T05:47:47.178Z,92627.13
2023-01-09T05:50:50.423Z,92615.59
2023-01-09T05:53:53.540Z,92614.16
2023-01-09T05:56:56.680Z,92617.81
2023-01-09T05:59:59.818Z,92615.25
2023-01-09T06:03:03.037Z,92616.16
2023-01-09T06:06:06.485Z,92601.25
2023-01-09T06:09:09.738Z,92592.44
2023-01-09T06:12:12.898Z,92594.66
2023-01-09T06:15:16.220Z,92592.69
2023-01-09T06:18:19.538Z,92591.63
2023-01-09T06:21:22.816Z,92591.06
2023-01-09T06:24:26.082Z,92587.38
2023-01-09T06:27:29.265Z,92592.03
2023-01-09T06:30:32.442Z,92588.03
2023-01-09T06:33:35.655Z,92582.03
2023-01-09T06:36:38.902Z,92587.13
2023-01-09T06:39:41.975Z,92579.63
2023-01-09T06:42:46.512Z,92565.09
2023-01-09T06:45:49.914Z,92565.56
2023-01-09T06:48:54.638Z,92562.91
2023-01-09T06:51:57.799Z,92558.34
2023-01-09T06:55:00.775Z,92544.50
2023-01-09T06:58:03.876Z,92539.94
2023-01-09T07:01:07.136Z,92539.28
2023-01-09T07:04:13.467Z,92524.19
2023-01-09T07:07:16.874Z,92539.91
2023-01-09T07:10:20.024Z,92538.69
2023-01-09T07:13:23.040Z,92546.91
2023-01-09T07:16:26.293Z,92536.41
2023-01-09T07:19:29.470Z,92541.56
2023-01-09T07:22:32.567Z,92533.69
2023-01-09T07:25:35.676Z,92533.16
2023-01-09T07:28:38.803Z,92533.84
2023-01-09T07:31:42.057Z,92532.06
2023-01-09T07:34:45.365Z,92531.38
2023-01-09T07:37:48.555Z,92522.75
2023-01-09T07:40:51.795Z,92522.94
2023-01-09T07:43:54.948Z,92516.09
2023-01-09T07:46:58.157Z,92517.16
2023-01-09T07:50:01.249Z,92513.13
2023-01-09T07:53:04.354Z,92526.59
2023-01-09T07:56:07.859Z,92528.63
2023-01-09T07:59:11.056Z,92521.50
2023-01-09T08:02:14.381Z,92528.19
2023-01-09T08:05:17.524Z,92514.56
2023-01-09T08:08:20.681Z,92509.34
2023-01-09T08:11:23.860Z,92508.53
2023-01-09T08:14:26.996Z,92503.44
2023-01-09T08:17:30.087Z,92514.66
2023-01-09T08:20:33.527Z,92518.38
2023-01-09T08:23:36.661Z,92501.81
2023-01-09T08:26:39.783Z,92514.56
2023-01-09T08:29:42.827Z,92510.31
2023-01-09T08:32:50.950Z,92512.34
2023-01-09T08:35:56.557Z,92506.50
2023-01-09T08:38:59.729Z,92509.41
2023-01-09T08:42:21.152Z,92493.09
2023-01-09T08:45:42.452Z,92504.53
2023-01-09T08:48:45.635Z,92504.41
2023-01-09T08:51:48.743Z,92504.69
2023-01-09T08:54:51.999Z,92506.44
2023-01-09T08:57:55.898Z,92512.75
2023-01-09T09:01:01.928Z,92513.03
2023-01-09T09:04:06.061Z,92516.78
2023-01-09T09:07:09.224Z,92517.31
2023-01-09T09:10:12.506Z,92510.22
2023-01-09T09:13:15.821Z,92508.66
2023-01-09T09:16:19.053Z,92499.34
2023-01-09T09:19:22.368Z,92494.28
2023-01-09T09:22:25.456Z,92485.44
2023-01-09T09:25:29.107Z,92478.22
2023-01-09T09:28:32.743Z,92472.63
2023-01-09T09:31:39.160Z,92474.34
2023-01-09T09:34:42.768Z,92471.41
2023-01-09T09:37:58.325Z,92459.78
2023-01-09T09:41:51.251Z,92459.75
2023-01-09T09:45:17.760Z,92462.56
2023-01-09T09:48:29.861Z,92457.91
2023-01-09T09:51:40.745Z,92458.97
2023-01-09T09:54:51.226Z,92453.09
2023-01-09T09:57:55.387Z,92439.91
2023-01-09T10:01:00.944Z,92429.69
2023-01-09T10:04:11.105Z,92417.41
2023-01-09T10:07:42.393Z,92429.28
2023-01-09T10:10:53.459Z,92431.56
2023-01-09T10:14:08.154Z,92427.84
2023-01-09T10:18:08.601Z,92427.16
2023-01-09T10:21:46.675Z,92404.78
2023-01-09T10:25:30.065Z,92401.97
2023-01-09T10:29:00.777Z,92394.63
2023-01-09T10:32:21.107Z,92393.03
2023-01-09T10:35:49.237Z,92390.66
2023-01-09T10:38:56.371Z,92387.88
2023-01-09T10:42:11.986Z,92387.88
2023-01-09T10:45:47.787Z,92386.25
2023-01-09T10:49:20.451Z,92375.31
2023-01-09T10:52:34.235Z,92383.72
2023-01-09T10:55:59.340Z,92393.06
2023-01-09T10:59:03.980Z,92391.19
2023-01-09T11:02:29.464Z,92377.56
2023-01-09T11:05:42.517Z,92370.25
2023-01-09T11:08:51.991Z,92358.66
2023-01-09T11:11:56.018Z,92353.06
2023-01-09T11:15:21.982Z,92371.03
2023-01-09T11:18:31.160Z,92367.47
2023-01-09T11:21:43.172Z,92369.72
2023-01-09T11:25:08.502Z,92350.00
2023-01-09T11:28:12.096Z,92351.22
2023-01-09T11:31:29.324Z,92344.66
2023-01-09T11:34:36.128Z,92342.13
2023-01-09T11:37:40.895Z,92335.19
2023-01-09T11:40:57.055Z,92352.00
2023-01-09T11:44:04.450Z,92343.19
2023-01-09T11:47:27.652Z,92344.66
2023-01-09T11:50:33.655Z,92338.25
2023-01-09T11:53:54.227Z,92346.09
2023-01-09T11:56:58.338Z,92342.91
2023-01-09T12:00:09.122Z,92338.09
2023-01-09T12:03:48.391Z,92325.91
2023-01-09T12:07:26.610Z,92324.47
2023-01-09T12:10:39.181Z,92324.91
2023-01-09T12:14:16.994Z,92327.31
2023-01-09T12:17:26.665Z,92337.72
2023-01-09T12:20:52.253Z,92333.34
2023-01-09T12:24:32.960Z,92337.03
2023-01-09T12:28:16.364Z,92350.50
2023-01-09T12:31:25.767Z,92350.38
2023-01-09T12:34:45.488Z,92355.53
2023-01-09T12:38:07.397Z,92356.63
2023-01-09T12:41:38.932Z,92364.78
2023-01-09T12:44:52.237Z,92348.28
2023-01-09T12:48:10.250Z,92322.44
2023-01-09T12:51:42.038Z,92326.44
2023-01-09T12:54:54.874Z,92329.88
2023-01-09T12:58:06.458Z,92340.81
2023-01-09T13:01:28.083Z,92322.84
2023-01-09T13:04:42.180Z,92317.75
2023-01-09T13:08:13.966Z,92310.16
2023-01-09T13:11:44.960Z,92306.81
2023-01-09T13:14:53.441Z,92295.50
2023-01-09T13:18:25.465Z,92316.28
2023-01-09T13:21:34.612Z,92316.81
2023-01-09T13:24:53.112Z,92323.63
2023-01-09T13:28:02.973Z,92310.97
2023-01-09T13:31:21.412Z,92319.38
2023-01-09T13:34:30.256Z,92320.72
2023-01-09T13:37:36.169Z,92318.56
2023-01-09T13:40:39.323Z,92324.69
2023-01-09T13:43:55.551Z,92337.47
2023-01-09T13:47:02.618Z,92326.78
2023-01-09T13:50:09.793Z,92315.31
2023-01-09T13:53:41.379Z,92305.06
2023-01-09T13:57:19.585Z,92312.84
2023-01-09T14:00:22.885Z,92325.16
2023-01-09T14:03:34.802Z,92315.88
2023-01-09T14:06:38.104Z,92298.59
2023-01-09T14:09:48.545Z,92311.47
2023-01-09T14:12:55.522Z,92300.28
2023-01-09T14:16:24.160Z,92310.47
2023-01-09T14:19:35.773Z,92297.06
2023-01-09T14:22:50.295Z,92274.06
2023-01-09T14:26:03.569Z,92253.16
2023-01-09T14:29:44.217Z,92238.00
2023-01-09T14:33:00.226Z,92261.53
2023-01-09T14:36:14.263Z,92271.00
2023-01-09T14:39:19.512Z,92262.91
2023-01-09T14:42:30.157Z,92269.56
2023-01-09T14:45:36.289Z,92263.75
2023-01-09T14:48:50.993Z,92257.75
2023-01-09T14:51:54.643Z,92269.88
2023-01-09T14:55:03.327Z,92276.00
2023-01-09T14:58:36.838Z,92277.03
2023-01-09T15:01:45.271Z,92261.69
2023-01-09T15:04:48.500Z,92256.75
2023-01-09T15:08:04.205Z,92257.34
2023-01-09T15:11:07.533Z,92254.16
2023-01-09T15:14:26.207Z,92258.03
2023-01-09T15:17:37.557Z,92274.44
2023-01-09T15:20:40.966Z,92275.34
2023-01-09T15:23:44.536Z,92286.00
2023-01-09T15:26:54.423Z,92286.06
2023-01-09T15:30:15.374Z,92283.16
2023-01-09T15:33:19.838Z,92273.91
2023-01-09T15:36:25.132Z,92260.00
2023-01-09T15:39:40.492Z,92262.16
2023-01-09T15:43:01.767Z,92271.00
2023-01-09T15:46:05.161Z,92271.28
2023-01-09T15:49:13.733Z,92280.63
2023-01-09T15:52:18.990Z,92266.59
2023-01-09T15:55:39.196Z,92269.25
2023-01-09T15:58:50.464Z,92259.75
2023-01-09T16:02:20.722Z,92263.63
2023-01-09T16:05:33.744Z,92254.38
2023-01-09T16:08:54.438Z,92255.31
2023-01-09T16:12:00.986Z,92250.72
2023-01-09T16:15:04.349Z,92248.75
2023-01-09T16:18:32.609Z,92258.09
2023-01-09T16:21:38.815Z,92266.19
2023-01-09T16:24:42.996Z,92266.69
2023-01-09T16:27:45.943Z,92278.44
2023-01-09T16:31:01.603Z,92282.69
2023-01-09T16:34:07.676Z,92291.44
2023-01-09T16:37:13.855Z,92304.56
2023-01-09T16:40:23.229Z,92321.47
2023-01-09T16:43:26.395Z,92307.66
2023-01-09T16:46:29.879Z,92297.06
2023-01-09T16:49:34.883Z,92308.19
2023-01-09T16:52:38.116Z,92295.31
2023-01-09T16:55:41.503Z,92295.75
2023-01-09T16:58:45.108Z,92279.47
2023-01-09T17:01:51.667Z,92281.50
2023-01-09T17:04:59.803Z,92286.53
2023-01-09T17:08:02.916Z,92289.56
2023-01-09T17:11:06.286Z,92297.44
2023-01-09T17:14:12.501Z,92289.41
2023-01-09T17:17:17.240Z,92290.53
2023-01-09T17:20:23.438Z,92275.84
2023-01-09T17:23:26.592Z,92280.94
2023-01-09T17:26:47.906Z,92275.22
2023-01-09T17:29:51.204Z,92277.75
2023-01-09T17:32:54.315Z,92284.94
2023-01-09T17:35:58.057Z,92268.63
2023-01-09T17:39:02.492Z,92258.81
2023-01-09T17:42:05.690Z,92273.38
2023-01-09T17:45:09.148Z,92262.97
2023-01-09T17:48:20.371Z,92267.22
2023-01-09T17:51:23.667Z,92276.59
2023-01-09T17:54:26.824Z,92282.41
2023-01-09T17:57:29.946Z,92279.22
2023-01-09T18:00:37.375Z,92284.78
2023-01-09T18:03:41.630Z,92273.50
2023-01-09T18:06:44.723Z,92268.28
2023-01-09T18:09:48.287Z,92281.50
2023-01-09T18:12:53.079Z,92284.09
2023-01-09T18:15:56.118Z,92301.81
2023-01-09T18:18:59.729Z,92304.13
2023-01-09T18:22:04.472Z,92298.56
2023-01-09T18:25:08.846Z,92295.31
2023-01-09T18:28:15.959Z,92287.44
2023-01-09T18:31:23.452Z,92295.00
2023-01-09T18:34:26.815Z,92307.25
2023-01-09T18:37:30.032Z,92323.06
2023-01-09T18:40:33.917Z,92324.41
2023-01-09T18:43:37.073Z,92311.25
2023-01-09T18:46:41.502Z,92308.44
2023-01-09T18:49:44.682Z,92310.97
2023-01-09T18:52:47.960Z,92324.00
2023-01-09T18:55:51.101Z,92314.75
2023-01-09T18:58:58.545Z,92299.75
2023-01-09T19:02:02.345Z,92308.00
2023-01-09T19:05:05.926Z,92304.06
2023-01-09T19:08:09.043Z,92319.44
2023-01-09T19:11:12.885Z,92312.47
2023-01-09T19:14:16.042Z,92303.69
2023-01-09T19:17:19.382Z,92292.13
2023-01-09T19:20:22.611Z,92301.91
2023-01-09T19:23:25.738Z,92301.28
2023-01-09T19:26:31.541Z,92290.25
2023-01-09T19:29:36.601Z,92301.63
2023-01-09T19:32:40.865Z,92298.56
2023-01-09T19:35:49.430Z,92289.75
2023-01-09T19:39:00.440Z,92286.19
2023-01-09T19:42:03.896Z,92275.50
2023-01-09T19:45:07.832Z,92280.03
2023-01-09T19:48:10.900Z,92272.75
2023-01-09T19:51:16.537Z,92272.69
2023-01-09T19:54:19.733Z,92254.66
2023-01-09T19:57:23.073Z,92250.25
2023-01-09T20:00:26.115Z,92249.81
2023-01-09T20:03:29.230Z,92251.09
2023-01-09T20:06:32.677Z,92256.50
2023-01-09T20:09:35.805Z,92261.69
2023-01-09T20:12:39.100Z,92266.94
2023-01-09T20:15:43.361Z,92255.03
2023-01-09T20:18:46.924Z,92240.31
2023-01-09T20:21:50.090Z,92224.81
2023-01-09T20:24:53.289Z,92197.22
2023-01-09T20:27:58.751Z,92214.16
2023-01-09T20:31:03.644Z,92221.59
2023-01-09T20:34:06.858Z,92225.31
2023-01-09T20:37:10.455Z,92223.38
2023-01-09T20:40:13.695Z,92223.69
2023-01-09T20:43:17.176Z,92234.47
2023-01-09T20:46:21.362Z,92236.22
2023-01-09T20:49:24.602Z,92241.72
2023-01-09T20:52:27.783Z,92237.22
2023-01-09T20:55:31.194Z,92237.72
2023-01-09T20:58:35.217Z,92240.19
2023-01-09T21:01:39.531Z,92240.41
2023-01-09T21:04:42.378Z,92250.28
2023-01-09T21:07:45.446Z,92233.94
2023-01-09T21:10:48.757Z,92224.22
2023-01-09T21:13:52.116Z,92217.25
2023-01-09T21:16:55.606Z,92219.03
2023-01-09T21:19:58.682Z,92209.91
2023-01-09T21:23:01.892Z,92206.50
2023-01-09T21:26:13.935Z,92207.88
2023-01-09T21:29:17.103Z,92201.59
2023-01-09T21:32:20.451Z,92200.84
2023-01-09T21:35:23.460Z,92193.91
2023-01-09T21:38:27.775Z,92201.53
2023-01-09T21:41:49.332Z,92192.38
2023-01-09T21:45:10.924Z,92188.44
2023-01-09T21:48:14.614Z,92160.09
2023-01-09T21:51:18.465Z,92151.47
2023-01-09T21:54:23.699Z,92159.69
2023-01-09T21:57:26.963Z,92168.47
2023-01-09T22:00:31.104Z,92177.09
2023-01-09T22:03:34.341Z,92188.19
2023-01-09T22:06:37.393Z,92186.34
2023-01-09T22:09:40.492Z,92175.41
2023-01-09T22:13:03.475Z,92177.09
2023-01-09T22:16:08.360Z,92164.50
2023-01-09T22:19:18.013Z,92164.97
2023-01-09T22:22:21.183Z,92170.53
2023-01-09T22:25:25.115Z,92176.25
2023-01-09T22:28:28.373Z,92176.63
2023-01-09T22:31:33.481Z,92175.81
2023-01-09T22:34:36.638Z,92174.28
2023-01-09T22:37:39.853Z,92179.69
2023-01-09T22:40:43.829Z,92185.47
2023-01-09T22:43:47.052Z,92184.47
2023-01-09T22:46:50.199Z,92186.59
2023-01-09T22:49:53.881Z,92188.56
2023-01-09T22:52:57.164Z,92188.25
2023-01-09T22:56:04.172Z,92193.84
2023-01-09T22:59:08.583Z,92200.31
2023-01-09T23:02:11.629Z,92218.78
2023-01-09T23:05:15.305Z,92212.13
2023-01-09T23:08:18.388Z,92222.22
2023-01-09T23:11:47.540Z,92219.81
2023-01-09T23:14:50.713Z,92218.69
2023-01-09T23:17:53.768Z,92207.34
2023-01-09T23:20:59.383Z,92218.41
2023-01-09T23:24:02.834Z,92215.25
2023-01-09T23:27:06.332Z,92207.53
2023-01-09T23:30:10.870Z,92206.03
2023-01-09T23:33:14.619Z,92200.22
2023-01-09T23:36:17.748Z,92209.97
2023-01-09T23:39:21.077Z,92218.97
2023-01-09T23:42:42.688Z,92204.97
2023-01-09T23:45:46.890Z,92202.78
2023-01-09T23:48:49.869Z,92205.03
2023-01-09T23:51:53.008Z,92188.38
2023-01-09T23:54:57.319Z,92173.59
2023-01-09T23:58:00.449Z,92167.63
